Time;durP1;ratioP1;P1;durP2;ratioP2;P2;SDS_P1;SDS_P2;PMS_P1;PMS_P2;Temp;Humidity;BMP_temperature;BMP_pressure;BME280_temperature;BME280_humidity;BME280_pressure;Samples;Min_cycle;Max_cycle;Signal;HPM_P1;HPM_P2
2021/12/23 00:00:48;;;;;;;36.55;32.55;;;-1.70;99.90;;;;;;4934358;29;20235;-69
2021/12/23 00:03:18;;;;;;;33.83;30.33;;;-1.70;99.90;;;;;;4933588;29;20258;-70
2021/12/23 00:05:46;;;;;;;32.85;29.40;;;-1.70;99.90;;;;;;4933923;29;20200;-71
2021/12/23 00:08:13;;;;;;;30.80;27.63;;;-1.70;99.90;;;;;;4933867;29;20234;-70
2021/12/23 00:10:41;;;;;;;27.80;24.80;;;-1.60;99.90;;;;;;4933772;29;20235;-69
2021/12/23 00:13:09;;;;;;;28.35;25.48;;;-1.50;99.90;;;;;;4933231;29;20247;-70
2021/12/23 00:15:49;;;;;;;25.98;23.30;;;-1.50;99.90;;;;;;4933718;29;20346;-70
2021/12/23 00:18:40;;;;;;;25.65;23.08;;;-1.60;99.90;;;;;;4934079;29;20283;-70
2021/12/23 00:23:57;;;;;;;25.20;22.67;;;-1.60;99.90;;;;;;4933510;29;20291;-71
2021/12/23 00:26:25;;;;;;;29.17;26.13;;;-1.60;99.90;;;;;;4934437;29;20199;-71
2021/12/23 00:28:53;;;;;;;27.63;24.85;;;-1.60;99.90;;;;;;4944632;29;20235;-70
2021/12/23 00:31:21;;;;;;;27.10;24.27;;;-1.60;99.90;;;;;;4926217;29;20220;-70
2021/12/23 00:33:50;;;;;;;27.98;24.98;;;-1.70;99.90;;;;;;4936697;29;20279;-70
2021/12/23 00:36:18;;;;;;;29.48;26.42;;;-1.80;99.90;;;;;;4936808;29;20251;-71
2021/12/23 00:38:50;;;;;;;29.48;26.40;;;-1.80;99.90;;;;;;4936785;29;20231;-71
2021/12/23 00:41:19;;;;;;;27.92;25.20;;;-1.80;99.90;;;;;;4936867;29;20283;-71
2021/12/23 00:43:47;;;;;;;28.13;25.23;;;-1.80;99.90;;;;;;4936383;29;20330;-70
2021/12/23 00:46:15;;;;;;;27.33;24.55;;;-1.70;99.90;;;;;;4936728;29;20200;-71
2021/12/23 00:48:43;;;;;;;26.73;24.13;;;-1.70;99.90;;;;;;4936677;29;20267;-71
2021/12/23 00:51:13;;;;;;;27.27;24.58;;;-1.60;99.90;;;;;;4936641;29;20283;-71
2021/12/23 00:53:41;;;;;;;28.88;25.90;;;-1.60;99.90;;;;;;4936476;29;20247;-71
2021/12/23 00:56:11;;;;;;;28.58;25.75;;;-1.60;99.90;;;;;;4936426;29;20219;-70
2021/12/23 00:58:39;;;;;;;27.38;24.48;;;-1.60;99.90;;;;;;4944459;29;20236;-70
2021/12/23 01:01:08;;;;;;;26.73;23.95;;;-1.60;99.90;;;;;;4955478;29;20921;-71
2021/12/23 01:03:36;;;;;;;28.67;25.75;;;-1.50;99.90;;;;;;4955275;29;20771;-71
2021/12/23 01:06:04;;;;;;;29.15;26.10;;;-1.40;99.90;;;;;;4955510;29;20278;-70
2021/12/23 01:08:33;;;;;;;28.10;25.27;;;-1.50;99.90;;;;;;4955509;29;20290;-70
2021/12/23 01:11:01;;;;;;;29.38;25.45;;;-1.50;99.90;;;;;;4955470;29;20299;-71
2021/12/23 01:13:29;;;;;;;27.95;25.13;;;-1.40;99.90;;;;;;4954874;29;20215;-71
2021/12/23 01:16:00;;;;;;;29.48;26.45;;;-1.40;99.90;;;;;;4955537;29;20219;-70
2021/12/23 01:18:31;;;;;;;30.25;27.05;;;-1.40;99.90;;;;;;4955538;29;20555;-70
2021/12/23 01:21:16;;;;;;;28.17;25.13;;;-1.50;99.90;;;;;;4955388;29;20788;-71
2021/12/23 01:23:50;;;;;;;26.45;23.58;;;-1.40;99.90;;;;;;4954921;29;20219;-70
2021/12/23 01:26:22;;;;;;;26.67;24.10;;;-1.40;99.90;;;;;;4955240;29;20231;-69
2021/12/23 01:28:53;;;;;;;25.70;23.13;;;-1.30;99.90;;;;;;4945740;29;20587;-70
2021/12/23 01:31:22;;;;;;;29.05;26.15;;;-1.30;99.90;;;;;;4955070;29;20227;-70
2021/12/23 01:33:50;;;;;;;27.02;23.83;;;-1.30;99.90;;;;;;4954726;29;20576;-70
2021/12/23 01:36:19;;;;;;;26.05;23.45;;;-1.30;99.90;;;;;;4931483;29;20232;-70
2021/12/23 01:38:48;;;;;;;26.00;23.25;;;-1.30;99.90;;;;;;4923669;29;20231;-69
2021/12/23 01:41:17;;;;;;;26.25;23.45;;;-1.30;99.90;;;;;;4916781;29;20239;-70
2021/12/23 01:43:45;;;;;;;27.20;24.35;;;-1.20;99.90;;;;;;4917240;29;20264;-70
2021/12/23 01:46:15;;;;;;;28.05;25.10;;;-1.20;99.90;;;;;;4916808;29;20209;-70
2021/12/23 01:48:43;;;;;;;27.85;25.05;;;-1.30;99.90;;;;;;4916611;29;20197;-71
2021/12/23 01:51:11;;;;;;;26.48;23.77;;;-1.30;99.90;;;;;;4916487;29;20205;-71
2021/12/23 01:53:39;;;;;;;27.75;25.00;;;-1.20;99.90;;;;;;4916119;29;20295;-71
2021/12/23 01:56:10;;;;;;;27.00;24.38;;;-1.20;99.90;;;;;;4916578;29;20219;-71
2021/12/23 01:58:39;;;;;;;28.20;25.40;;;-1.20;99.90;;;;;;4940975;29;20243;-71
2021/12/23 02:01:07;;;;;;;28.65;25.70;;;-1.20;99.90;;;;;;4916379;29;20288;-70
2021/12/23 02:03:35;;;;;;;28.02;25.13;;;-1.30;99.90;;;;;;4915854;29;20709;-71
2021/12/23 02:06:03;;;;;;;28.83;25.95;;;-1.40;99.90;;;;;;4916658;29;20236;-71
2021/12/23 02:08:32;;;;;;;26.75;24.00;;;-1.30;99.90;;;;;;4916520;29;20201;-72
2021/12/23 02:11:00;;;;;;;26.80;24.00;;;-1.30;99.90;;;;;;4916201;29;20224;-71
2021/12/23 02:13:30;;;;;;;26.27;23.70;;;-1.20;99.90;;;;;;4915772;29;20793;-72
2021/12/23 02:15:58;;;;;;;25.48;23.08;;;-1.20;99.90;;;;;;4916166;29;20248;-71
2021/12/23 02:18:27;;;;;;;26.10;23.35;;;-1.10;99.90;;;;;;4916057;29;20319;-71
2021/12/23 02:20:57;;;;;;;25.83;23.23;;;-1.10;99.90;;;;;;4916066;29;20197;-73
2021/12/23 02:23:26;;;;;;;27.85;25.08;;;-1.20;99.90;;;;;;4915752;29;20304;-72
2021/12/23 02:25:54;;;;;;;27.48;24.67;;;-1.20;99.90;;;;;;4915963;29;20204;-71
2021/12/23 02:28:23;;;;;;;29.88;26.67;;;-1.20;99.90;;;;;;4938412;29;20725;-69
2021/12/23 02:30:52;;;;;;;29.13;26.23;;;-1.20;99.90;;;;;;4952219;29;20245;-69
2021/12/23 02:33:22;;;;;;;28.70;25.70;;;-1.20;99.90;;;;;;4953570;29;20219;-69
2021/12/23 02:35:50;;;;;;;30.73;25.48;;;-1.20;99.90;;;;;;4954019;29;20921;-69
2021/12/23 02:38:20;;;;;;;28.30;25.38;;;-1.20;99.90;;;;;;4947796;29;20250;-72
2021/12/23 02:40:48;;;;;;;29.17;25.77;;;-1.40;99.90;;;;;;4934114;29;20243;-70
2021/12/23 02:43:18;;;;;;;27.58;24.75;;;-1.30;99.90;;;;;;4930677;29;20255;-70
2021/12/23 02:45:49;;;;;;;27.50;24.80;;;-1.40;99.90;;;;;;4934687;29;20239;-70
2021/12/23 02:48:18;;;;;;;26.88;24.25;;;-1.40;99.90;;;;;;4934666;29;20279;-72
2021/12/23 02:50:48;;;;;;;28.08;25.17;;;-1.50;99.90;;;;;;4933746;29;20228;-71
2021/12/23 02:53:17;;;;;;;29.30;26.50;;;-1.50;99.90;;;;;;4933881;29;20251;-70
2021/12/23 02:55:46;;;;;;;29.30;26.20;;;-1.50;99.90;;;;;;4934222;29;20228;-71
2021/12/23 02:58:14;;;;;;;32.58;29.08;;;-1.60;99.90;;;;;;4942216;29;20228;-71
2021/12/23 03:00:44;;;;;;;37.72;33.45;;;-1.60;99.90;;;;;;4933545;29;20683;-70
2021/12/23 03:03:13;;;;;;;35.45;31.65;;;-1.60;99.90;;;;;;4953343;29;20211;-70
2021/12/23 03:05:46;;;;;;;30.88;27.20;;;-1.60;99.90;;;;;;4953388;29;20614;-70
2021/12/23 03:08:13;;;;;;;31.17;28.08;;;-1.50;99.90;;;;;;4953515;29;20215;-70
2021/12/23 03:10:41;;;;;;;30.15;27.02;;;-1.50;99.90;;;;;;4953523;29;20303;-70
2021/12/23 03:13:11;;;;;;;30.70;27.60;;;-1.50;99.90;;;;;;4953127;29;20314;-70
2021/12/23 03:15:38;;;;;;;34.33;30.73;;;-1.50;99.90;;;;;;4953516;29;20226;-72
2021/12/23 03:18:06;;;;;;;33.80;30.17;;;-1.80;99.90;;;;;;4953228;29;20225;-70
2021/12/23 03:20:34;;;;;;;35.30;31.42;;;-1.90;99.90;;;;;;4953426;29;20219;-70
2021/12/23 03:23:02;;;;;;;38.47;33.17;;;-2.00;99.90;;;;;;4952715;29;20254;-70
2021/12/23 03:25:30;;;;;;;36.63;32.75;;;-2.20;99.90;;;;;;4953336;29;20245;-69
2021/12/23 03:27:58;;;;;;;38.85;34.65;;;-2.10;99.90;;;;;;4949418;29;20286;-70
2021/12/23 03:30:27;;;;;;;35.55;31.85;;;-2.10;99.90;;;;;;4948242;29;20227;-70
2021/12/23 03:32:55;;;;;;;38.80;32.97;;;-2.20;99.90;;;;;;4952748;29;20290;-70
2021/12/23 03:35:23;;;;;;;38.55;34.15;;;-2.20;99.90;;;;;;4953154;29;20227;-70
2021/12/23 03:37:53;;;;;;;36.90;32.40;;;-2.20;99.90;;;;;;4950661;29;20282;-70
2021/12/23 03:40:21;;;;;;;37.70;33.55;;;-2.20;99.90;;;;;;4934001;29;20267;-72
2021/12/23 03:42:49;;;;;;;36.67;32.55;;;-2.30;99.90;;;;;;4933330;29;20205;-70
2021/12/23 03:45:18;;;;;;;34.55;30.13;;;-2.20;99.90;;;;;;4934099;29;20244;-71
2021/12/23 03:47:48;;;;;;;35.47;31.83;;;-2.00;99.90;;;;;;4929678;29;20227;-71
2021/12/23 03:50:18;;;;;;;39.47;32.83;;;-2.00;99.90;;;;;;4920786;29;20204;-70
2021/12/23 03:52:46;;;;;;;35.15;31.27;;;-1.90;99.90;;;;;;4914478;29;20288;-70
2021/12/23 03:55:16;;;;;;;34.05;30.30;;;-1.80;99.90;;;;;;4898048;29;20236;-71
2021/12/23 03:57:44;;;;;;;34.33;30.63;;;-1.70;99.90;;;;;;4932346;29;20251;-71
2021/12/23 04:00:15;;;;;;;32.42;29.08;;;-1.70;99.90;;;;;;4946105;29;20294;-71
2021/12/23 04:02:44;;;;;;;33.42;29.83;;;-1.60;99.90;;;;;;4955176;28;20200;-70
2021/12/23 04:05:15;;;;;;;33.78;30.17;;;-1.50;99.90;;;;;;4956636;29;20230;-71
2021/12/23 04:07:44;;;;;;;31.50;28.15;;;-1.50;99.90;;;;;;4956589;29;20720;-70
2021/12/23 04:10:14;;;;;;;33.13;29.67;;;-1.40;99.90;;;;;;4956581;29;20282;-71
2021/12/23 04:12:43;;;;;;;33.38;30.02;;;-1.40;99.90;;;;;;4956067;29;20730;-71
2021/12/23 04:15:11;;;;;;;34.03;30.33;;;-1.40;99.90;;;;;;4956317;29;20278;-70
2021/12/23 04:17:40;;;;;;;33.75;30.27;;;-1.30;99.90;;;;;;4956327;29;20687;-71
2021/12/23 04:20:15;;;;;;;33.80;30.10;;;-1.30;99.90;;;;;;4956393;29;20262;-71
2021/12/23 04:22:47;;;;;;;33.63;29.77;;;-1.30;99.90;;;;;;4955819;29;20199;-71
2021/12/23 04:25:17;;;;;;;33.83;30.42;;;-1.30;99.90;;;;;;4956240;29;20282;-69
2021/12/23 04:27:46;;;;;;;31.92;28.65;;;-1.30;99.90;;;;;;4954380;29;20307;-70
2021/12/23 04:30:15;;;;;;;32.25;28.83;;;-1.20;99.90;;;;;;4949670;29;20283;-71
2021/12/23 04:32:43;;;;;;;32.67;29.38;;;-1.10;99.90;;;;;;4955751;29;20195;-71
2021/12/23 04:35:12;;;;;;;33.17;29.75;;;-1.10;99.90;;;;;;4956183;29;20234;-71
2021/12/23 04:37:40;;;;;;;35.30;30.63;;;-1.10;99.90;;;;;;4955122;29;20690;-69
2021/12/23 04:40:11;;;;;;;33.75;30.30;;;-1.20;99.90;;;;;;4936872;29;20307;-71
2021/12/23 04:42:40;;;;;;;34.13;30.67;;;-1.20;99.90;;;;;;4936462;29;20231;-68
2021/12/23 04:45:09;;;;;;;33.97;30.35;;;-1.20;99.90;;;;;;4936597;29;20567;-70
2021/12/23 04:47:37;;;;;;;36.45;32.50;;;-1.20;99.90;;;;;;4936790;29;20232;-71
2021/12/23 04:50:08;;;;;;;33.50;30.08;;;-1.20;99.90;;;;;;4936775;29;20208;-71
2021/12/23 04:52:37;;;;;;;35.53;31.88;;;-1.20;99.90;;;;;;4936068;29;20239;-72
2021/12/23 04:55:06;;;;;;;33.70;30.23;;;-1.20;99.90;;;;;;4929250;29;20279;-71
2021/12/23 04:57:35;;;;;;;34.00;30.48;;;-1.20;99.90;;;;;;4933344;29;20238;-71
2021/12/23 05:00:05;;;;;;;35.22;31.70;;;-1.20;99.90;;;;;;4947540;29;20250;-71
2021/12/23 05:02:33;;;;;;;33.50;29.95;;;-1.10;99.90;;;;;;4938012;29;20234;-71
2021/12/23 05:05:01;;;;;;;35.00;31.40;;;-1.20;99.90;;;;;;4955484;29;20203;-71
2021/12/23 05:07:29;;;;;;;35.50;31.80;;;-1.30;99.90;;;;;;4947934;29;20203;-70
2021/12/23 05:09:57;;;;;;;35.97;32.20;;;-1.30;99.90;;;;;;4955361;29;20570;-71
2021/12/23 05:12:25;;;;;;;36.05;32.35;;;-1.30;99.90;;;;;;4955018;28;20286;-72
2021/12/23 05:14:54;;;;;;;36.95;33.00;;;-1.30;99.90;;;;;;4954574;29;20716;-70
2021/12/23 05:17:22;;;;;;;37.20;33.40;;;-1.30;99.90;;;;;;4955374;29;20238;-69
2021/12/23 05:19:50;;;;;;;33.45;30.08;;;-1.20;99.90;;;;;;4950382;29;20301;-70
2021/12/23 05:22:18;;;;;;;37.42;33.42;;;-1.20;99.90;;;;;;4949524;29;20317;-70
2021/12/23 05:24:46;;;;;;;35.58;31.98;;;-1.20;99.90;;;;;;4952957;29;20274;-70
2021/12/23 05:27:14;;;;;;;35.42;31.77;;;-1.10;99.90;;;;;;4955260;29;20294;-70
2021/12/23 05:29:42;;;;;;;35.80;32.10;;;-1.10;99.90;;;;;;4954997;29;20691;-72
2021/12/23 05:32:11;;;;;;;37.25;33.25;;;-1.10;99.90;;;;;;4954780;29;20227;-70
2021/12/23 05:34:39;;;;;;;39.40;34.45;;;-1.10;99.90;;;;;;4954993;29;20246;-72
2021/12/23 05:37:06;;;;;;;37.10;33.20;;;-1.20;99.90;;;;;;4955163;29;20235;-72
2021/12/23 05:39:34;;;;;;;39.38;35.13;;;-1.20;99.90;;;;;;4938424;29;20316;-73
2021/12/23 05:42:03;;;;;;;39.35;35.33;;;-1.20;99.90;;;;;;4935505;29;20631;-73
2021/12/23 05:44:31;;;;;;;38.00;34.00;;;-1.20;99.90;;;;;;4935650;29;20236;-72
2021/12/23 05:46:59;;;;;;;40.97;36.58;;;-1.30;99.90;;;;;;4935014;29;20891;-70
2021/12/23 05:49:28;;;;;;;40.05;35.25;;;-1.40;99.90;;;;;;4935251;29;20235;-69
2021/12/23 05:51:56;;;;;;;45.08;34.90;;;-1.40;99.90;;;;;;4953469;29;20571;-70
2021/12/23 05:54:23;;;;;;;40.67;36.17;;;-1.50;99.90;;;;;;4939401;29;20307;-71
2021/12/23 05:56:51;;;;;;;44.55;36.45;;;-1.40;99.90;;;;;;4935472;29;20231;-72
2021/12/23 05:59:19;;;;;;;38.95;34.75;;;-1.40;99.90;;;;;;4925667;29;20328;-70
2021/12/23 06:01:47;;;;;;;40.78;36.42;;;-1.30;99.90;;;;;;4926830;29;20292;-70
2021/12/23 06:04:15;;;;;;;40.58;35.95;;;-1.30;99.90;;;;;;4920298;29;20232;-70
2021/12/23 06:06:44;;;;;;;42.75;38.08;;;-1.30;99.90;;;;;;4929108;29;20224;-70
2021/12/23 06:09:12;;;;;;;40.58;36.38;;;-1.40;99.90;;;;;;4929793;29;20632;-71
2021/12/23 06:11:40;;;;;;;40.65;36.25;;;-1.50;99.90;;;;;;4929180;29;20275;-70
2021/12/23 06:14:08;;;;;;;43.75;36.33;;;-1.60;99.90;;;;;;4933250;29;20661;-70
2021/12/23 06:16:36;;;;;;;42.80;38.15;;;-1.60;99.90;;;;;;4941287;29;20205;-70
2021/12/23 06:19:04;;;;;;;41.15;35.85;;;-1.60;99.90;;;;;;4941462;29;20211;-67
2021/12/23 06:21:32;;;;;;;40.30;35.97;;;-1.50;99.90;;;;;;4937595;29;20299;-70
2021/12/23 06:24:03;;;;;;;43.13;38.28;;;-1.50;99.90;;;;;;4934228;29;20331;-70
2021/12/23 06:26:31;;;;;;;45.17;39.53;;;-1.40;99.90;;;;;;4944615;29;20207;-70
2021/12/23 06:28:59;;;;;;;40.40;35.83;;;-1.50;99.90;;;;;;4938905;29;20955;-70
2021/12/23 06:31:27;;;;;;;44.03;38.45;;;-1.50;99.90;;;;;;4929601;29;20248;-70
2021/12/23 06:33:55;;;;;;;42.95;38.35;;;-1.50;99.90;;;;;;4933027;29;20326;-71
2021/12/23 06:36:23;;;;;;;42.05;37.50;;;-1.40;99.90;;;;;;4943482;29;20614;-71
2021/12/23 06:38:51;;;;;;;43.25;36.40;;;-1.30;99.90;;;;;;4939143;29;20211;-70
2021/12/23 06:41:20;;;;;;;41.30;35.95;;;-1.20;99.90;;;;;;4940972;29;20275;-70
2021/12/23 06:43:48;;;;;;;43.83;38.90;;;-1.20;99.90;;;;;;4939224;29;20342;-70
2021/12/23 06:46:16;;;;;;;45.30;38.75;;;-1.30;99.90;;;;;;4927873;29;20231;-69
2021/12/23 06:48:44;;;;;;;43.58;37.97;;;-1.40;99.90;;;;;;4931222;29;20192;-69
2021/12/23 06:51:12;;;;;;;47.05;39.33;;;-1.40;99.90;;;;;;4934138;29;20231;-68
2021/12/23 06:53:40;;;;;;;48.88;40.17;;;-1.50;99.90;;;;;;4934170;29;20747;-69
2021/12/23 06:56:10;;;;;;;50.13;42.10;;;-1.70;99.90;;;;;;4932665;29;20303;-70
2021/12/23 06:58:39;;;;;;;48.63;39.85;;;-1.60;99.90;;;;;;4934191;29;20231;-70
2021/12/23 07:01:08;;;;;;;47.97;40.45;;;-1.60;99.90;;;;;;4934569;29;20227;-69
2021/12/23 07:03:57;;;;;;;50.63;39.53;;;-1.60;99.90;;;;;;4934125;29;20268;-69
2021/12/23 07:06:26;;;;;;;47.60;40.28;;;-1.70;99.90;;;;;;4925827;29;20223;-68
2021/12/23 07:08:54;;;;;;;67.32;47.15;;;-1.80;99.90;;;;;;4915240;29;20284;-66
2021/12/23 07:11:22;;;;;;;177.98;90.05;;;-1.80;99.90;;;;;;4915261;29;20199;-68
2021/12/23 07:13:51;;;;;;;78.95;59.42;;;0.50;99.90;;;;;;4923619;29;20310;-67
2021/12/23 07:16:19;;;;;;;52.58;43.28;;;-0.10;99.90;;;;;;4933317;29;20726;-70
2021/12/23 07:18:47;;;;;;;51.55;40.78;;;-1.00;99.90;;;;;;4941212;29;20582;-70
2021/12/23 07:21:15;;;;;;;47.95;39.70;;;-1.20;99.90;;;;;;4946476;29;20325;-71
2021/12/23 07:23:44;;;;;;;47.95;40.33;;;-1.40;99.90;;;;;;4952545;29;20250;-73
2021/12/23 07:26:11;;;;;;;44.88;38.30;;;-1.50;99.90;;;;;;4952967;29;20283;-71
2021/12/23 07:28:39;;;;;;;43.40;37.75;;;-1.60;99.90;;;;;;4952820;29;20219;-74
2021/12/23 07:31:08;;;;;;;47.88;39.85;;;-1.60;99.90;;;;;;4952780;29;20657;-71
2021/12/23 07:33:36;;;;;;;46.47;38.92;;;-1.70;99.90;;;;;;4953101;29;20241;-71
2021/12/23 07:36:06;;;;;;;48.97;40.88;;;-1.80;99.90;;;;;;4953317;28;20203;-71
2021/12/23 07:38:34;;;;;;;47.55;40.22;;;-1.80;99.90;;;;;;4957071;29;20234;-71
2021/12/23 07:41:02;;;;;;;50.53;40.78;;;-1.80;99.90;;;;;;4957438;29;20301;-71
2021/12/23 07:43:44;;;;;;;51.15;40.38;;;-1.80;99.90;;;;;;4975822;23;20322;-64
2021/12/23 07:46:13;;;;;;;49.50;41.70;;;-1.70;99.90;;;;;;4937822;29;20242;-64
2021/12/23 07:48:41;;;;;;;50.03;41.55;;;-1.70;99.90;;;;;;4944204;29;20293;-64
2021/12/23 07:51:09;;;;;;;47.83;41.03;;;-1.60;99.90;;;;;;4948637;29;20192;-64
2021/12/23 07:53:37;;;;;;;50.65;40.95;;;-1.50;99.90;;;;;;4955438;29;20311;-65
2021/12/23 07:56:05;;;;;;;46.38;41.38;;;-1.40;99.90;;;;;;4972054;28;20680;-64
2021/12/23 07:58:33;;;;;;;46.00;38.03;;;-1.40;99.90;;;;;;4974782;28;20237;-64
2021/12/23 08:01:01;;;;;;;48.70;40.42;;;-1.30;99.90;;;;;;4974753;28;20687;-64
2021/12/23 08:03:31;;;;;;;47.22;40.20;;;-1.30;99.90;;;;;;4974312;28;20679;-64
2021/12/23 08:05:58;;;;;;;47.88;40.50;;;-1.30;99.90;;;;;;4974476;28;20679;-64
2021/12/23 08:08:26;;;;;;;45.95;41.10;;;-1.30;99.90;;;;;;4974696;28;20298;-64
2021/12/23 08:10:54;;;;;;;43.72;38.83;;;-1.40;99.90;;;;;;4974973;28;20228;-64
2021/12/23 08:13:22;;;;;;;47.58;40.45;;;-1.40;99.90;;;;;;4974231;28;20297;-64
2021/12/23 08:15:50;;;;;;;46.55;39.03;;;-1.40;99.90;;;;;;4974598;28;20191;-64
2021/12/23 08:18:18;;;;;;;48.03;40.40;;;-1.30;99.90;;;;;;4974447;28;20574;-64
2021/12/23 08:20:47;;;;;;;49.25;39.75;;;-1.40;99.90;;;;;;4966539;28;20214;-64
2021/12/23 08:23:16;;;;;;;46.55;40.75;;;-1.40;99.90;;;;;;4974142;28;20730;-64
2021/12/23 08:25:48;;;;;;;45.33;38.78;;;-1.40;99.90;;;;;;4974378;28;20299;-64
2021/12/23 08:28:16;;;;;;;49.47;42.50;;;-1.40;99.90;;;;;;4974410;28;20198;-63
2021/12/23 08:30:44;;;;;;;44.70;38.53;;;-1.50;99.90;;;;;;4974387;28;20688;-63
2021/12/23 08:33:12;;;;;;;57.17;42.00;;;-1.50;99.90;;;;;;4974591;28;20622;-63
2021/12/23 08:35:40;;;;;;;49.33;42.10;;;-1.60;99.90;;;;;;4973913;28;20222;-64
2021/12/23 08:38:10;;;;;;;64.78;44.65;;;-1.60;99.90;;;;;;4974314;28;20222;-64
2021/12/23 08:40:37;;;;;;;46.03;40.28;;;-1.60;99.90;;;;;;4974125;28;20652;-64
2021/12/23 08:43:05;;;;;;;52.95;41.03;;;-1.50;99.90;;;;;;4974123;28;20295;-64
2021/12/23 08:45:35;;;;;;;50.03;40.60;;;-1.50;99.90;;;;;;4939500;28;1028631;-64
2021/12/23 08:48:04;;;;;;;52.03;41.80;;;-1.60;99.90;;;;;;4974786;28;20281;-63
2021/12/23 08:50:33;;;;;;;55.47;44.53;;;-1.50;99.90;;;;;;4966934;28;20202;-63
2021/12/23 08:53:02;;;;;;;60.33;44.95;;;-1.50;99.90;;;;;;4974926;28;20222;-63
2021/12/23 08:55:33;;;;;;;51.72;43.65;;;-1.50;99.90;;;;;;4974697;28;20296;-63
2021/12/23 08:58:04;;;;;;;53.78;43.90;;;-1.50;99.90;;;;;;4975112;28;20283;-63
2021/12/23 09:00:35;;;;;;;54.40;44.70;;;-1.50;99.90;;;;;;4974708;28;20254;-63
2021/12/23 09:03:05;;;;;;;58.25;46.10;;;-1.60;99.90;;;;;;4974581;28;20689;-63
2021/12/23 09:05:34;;;;;;;55.38;43.60;;;-1.50;99.90;;;;;;4974561;28;20707;-63
2021/12/23 09:08:01;;;;;;;61.25;47.97;;;-1.50;99.90;;;;;;4974744;28;20302;-63
2021/12/23 09:10:31;;;;;;;57.15;44.75;;;-1.50;99.90;;;;;;4974836;28;20702;-63
2021/12/23 09:12:59;;;;;;;54.60;44.17;;;-1.50;99.90;;;;;;4974378;28;20302;-63
2021/12/23 09:15:27;;;;;;;56.72;45.85;;;-1.50;99.90;;;;;;4974403;28;20281;-63
2021/12/23 09:17:55;;;;;;;64.60;48.70;;;-1.40;99.90;;;;;;4974318;28;20281;-64
2021/12/23 09:20:24;;;;;;;60.13;48.65;;;-1.50;99.90;;;;;;4966448;28;20302;-64
2021/12/23 09:22:53;;;;;;;56.22;44.60;;;-1.60;99.90;;;;;;4974273;28;20199;-63
2021/12/23 09:25:29;;;;;;;60.40;46.38;;;-1.60;99.90;;;;;;4974180;28;20262;-63
2021/12/23 09:28:22;;;;;;;62.75;48.55;;;-1.60;99.90;;;;;;4974629;28;20570;-64
2021/12/23 09:33:37;;;;;;;64.47;48.20;;;-1.50;99.90;;;;;;4973833;28;20250;-63
2021/12/23 09:36:05;;;;;;;67.82;49.47;;;-1.50;99.90;;;;;;4974406;28;20206;-63
2021/12/23 09:38:34;;;;;;;66.55;50.97;;;-1.70;99.90;;;;;;4974238;28;20262;-63
2021/12/23 09:41:04;;;;;;;71.30;52.97;;;-1.70;99.90;;;;;;4974198;28;20305;-63
2021/12/23 09:43:36;;;;;;;68.95;51.88;;;-1.80;99.90;;;;;;4973658;28;20289;-63
2021/12/23 09:46:05;;;;;;;73.28;53.05;;;-1.70;99.90;;;;;;4973808;28;20282;-62
2021/12/23 09:48:33;;;;;;;68.95;50.47;;;-1.60;99.90;;;;;;4973475;28;20577;-63
2021/12/23 09:51:04;;;;;;;69.07;51.90;;;-1.60;99.90;;;;;;4965826;28;20218;-63
2021/12/23 09:53:34;;;;;;;63.28;49.30;;;-1.50;99.90;;;;;;4973426;28;20234;-63
2021/12/23 09:56:02;;;;;;;64.63;49.47;;;-1.50;99.90;;;;;;4973754;28;20277;-63
2021/12/23 09:58:32;;;;;;;65.75;51.17;;;-1.40;99.90;;;;;;4973728;28;20731;-63
2021/12/23 10:01:02;;;;;;;72.90;53.35;;;-1.40;99.90;;;;;;4972780;28;20322;-63
2021/12/23 10:03:30;;;;;;;66.25;50.90;;;-1.50;99.90;;;;;;4973307;28;20198;-63
2021/12/23 10:05:59;;;;;;;65.88;51.38;;;-1.50;99.90;;;;;;4973629;28;20659;-64
2021/12/23 10:08:28;;;;;;;70.38;51.85;;;-1.50;99.90;;;;;;4973663;28;20285;-63
2021/12/23 10:11:00;;;;;;;69.32;52.40;;;-1.50;99.90;;;;;;4973040;28;20237;-62
2021/12/23 10:28:56;;;;;;;66.72;48.72;;;-1.50;99.90;;;;;;4973388;28;20289;-63
2021/12/23 10:30:40;;;;;;;68.85;50.10;;;-1.50;99.90;;;;;;4972834;28;20245;-64
2021/12/23 10:33:31;;;;;;;68.57;50.00;;;-1.40;99.90;;;;;;4973020;28;20671;-64
2021/12/23 10:38:50;;;;;;;67.60;51.78;;;-1.20;99.90;;;;;;4973116;28;20237;-64
2021/12/23 10:41:20;;;;;;;64.00;50.55;;;-1.20;99.90;;;;;;4972823;28;20699;-64
2021/12/23 10:43:55;;;;;;;61.70;45.90;;;-1.20;99.90;;;;;;4972657;28;20687;-64
2021/12/23 10:46:26;;;;;;;67.88;50.42;;;-1.20;99.90;;;;;;4972829;28;20273;-63
2021/12/23 10:49:08;;;;;;;70.30;51.13;;;-1.10;99.90;;;;;;4970245;28;20286;-63
2021/12/23 10:51:59;;;;;;;61.47;47.38;;;-1.10;99.90;;;;;;4969001;28;20203;-63
2021/12/23 11:00:18;;;;;;;60.70;46.53;;;-1.10;99.90;;;;;;4972470;28;20203;-64
2021/12/23 11:03:06;;;;;;;58.80;46.42;;;-1.10;99.90;;;;;;4972148;28;20250;-64
2021/12/23 11:05:41;;;;;;;56.47;45.38;;;-1.00;99.90;;;;;;4972474;28;20214;-64
2021/12/23 11:08:19;;;;;;;57.67;45.17;;;-1.00;99.90;;;;;;4972882;28;20630;-64
2021/12/23 11:31:06;;;;;;;52.42;45.97;;;-0.50;99.90;;;;;;4956526;28;20293;-63
2021/12/23 11:36:31;;;;;;;51.35;43.65;;;-0.40;99.90;;;;;;4972490;28;20285;-64
2021/12/23 11:39:11;;;;;;;53.25;43.58;;;-0.40;99.90;;;;;;4972215;28;20293;-64
2021/12/23 11:41:49;;;;;;;52.40;45.17;;;-0.30;99.90;;;;;;4972376;28;20297;-64
2021/12/23 11:44:17;;;;;;;52.53;43.50;;;-0.30;99.90;;;;;;4971835;28;20258;-63
2021/12/23 11:46:49;;;;;;;50.80;43.65;;;-0.20;99.90;;;;;;4972227;28;20277;-64
2021/12/23 11:49:18;;;;;;;52.65;43.50;;;-0.20;99.90;;;;;;4967025;28;20258;-63
2021/12/23 11:51:53;;;;;;;51.10;42.75;;;-0.20;99.90;;;;;;4963864;28;20747;-64
2021/12/23 11:54:27;;;;;;;49.10;42.65;;;0.00;99.90;;;;;;4972324;28;20222;-64
2021/12/23 11:57:02;;;;;;;50.95;43.20;;;-0.10;99.90;;;;;;4972203;28;20297;-63
2021/12/23 11:59:31;;;;;;;49.80;42.60;;;-0.10;99.90;;;;;;4972258;28;20221;-64
2021/12/23 12:01:59;;;;;;;50.03;42.60;;;-0.10;99.90;;;;;;4971963;28;20683;-62
2021/12/23 12:04:29;;;;;;;46.20;40.45;;;-0.10;99.90;;;;;;4972173;28;20237;-64
2021/12/23 12:06:58;;;;;;;51.63;43.58;;;0.00;99.90;;;;;;4971907;28;20226;-64
2021/12/23 12:09:30;;;;;;;50.13;41.95;;;0.00;99.90;;;;;;4972191;28;20237;-64
2021/12/23 12:12:08;;;;;;;51.78;41.35;;;0.10;99.90;;;;;;4971900;28;20295;-62
2021/12/23 12:14:45;;;;;;;52.78;41.20;;;0.00;99.90;;;;;;4971940;28;20646;-64
2021/12/23 12:17:34;;;;;;;49.20;41.50;;;0.10;99.90;;;;;;4971750;28;20262;-63
2021/12/23 12:20:10;;;;;;;54.53;44.17;;;0.00;99.90;;;;;;4963906;28;20210;-64
2021/12/23 12:22:56;;;;;;;46.83;41.88;;;0.00;99.90;;;;;;4948766;28;20218;-64
2021/12/23 12:25:52;;;;;;;45.97;40.92;;;0.00;99.90;;;;;;4938756;29;20310;-62
2021/12/23 12:28:34;;;;;;;44.85;39.92;;;0.10;99.90;;;;;;4943670;29;20684;-63
2021/12/23 12:31:05;;;;;;;47.05;40.13;;;0.20;99.90;;;;;;4941823;29;20755;-63
2021/12/23 12:33:54;;;;;;;42.95;38.08;;;0.40;99.90;;;;;;4945086;29;21012;-64
2021/12/23 12:36:24;;;;;;;44.28;39.42;;;0.40;99.90;;;;;;4950928;29;20311;-61
2021/12/23 12:38:57;;;;;;;41.17;36.90;;;0.40;99.90;;;;;;4946933;29;20278;-62
2021/12/23 12:41:32;;;;;;;45.03;39.40;;;0.50;99.90;;;;;;4953129;28;20269;-63
2021/12/23 12:44:10;;;;;;;41.53;37.05;;;0.70;99.90;;;;;;4951752;29;20233;-63
2021/12/23 12:47:05;;;;;;;42.50;37.90;;;0.80;99.90;;;;;;4943854;28;20325;-63
2021/12/23 12:49:37;;;;;;;41.33;36.92;;;0.80;99.90;;;;;;4950203;28;20199;-63
2021/12/23 12:52:16;;;;;;;42.92;37.15;;;0.90;99.90;;;;;;4946310;28;20244;-63
2021/12/23 12:54:49;;;;;;;40.72;36.60;;;0.90;99.90;;;;;;4953035;29;20322;-63
2021/12/23 12:57:21;;;;;;;42.92;38.33;;;1.00;99.90;;;;;;4952732;29;20214;-63
2021/12/23 12:59:50;;;;;;;42.25;37.75;;;1.00;99.90;;;;;;4948876;29;20191;-63
2021/12/23 13:02:25;;;;;;;41.22;36.85;;;1.10;99.90;;;;;;4945419;29;20779;-63
2021/12/23 13:04:58;;;;;;;42.55;38.10;;;1.30;99.90;;;;;;4945294;29;20589;-63
2021/12/23 13:07:29;;;;;;;43.50;38.55;;;1.30;99.90;;;;;;4943848;29;20227;-64
2021/12/23 13:10:03;;;;;;;44.08;39.47;;;1.20;99.90;;;;;;4943764;29;20290;-63
2021/12/23 13:12:43;;;;;;;41.33;37.05;;;1.10;99.90;;;;;;4944714;29;20201;-63
2021/12/23 13:15:17;;;;;;;43.67;39.00;;;1.20;99.90;;;;;;4946334;29;20247;-65
2021/12/23 13:17:49;;;;;;;41.80;37.67;;;1.20;99.90;;;;;;4944061;29;20235;-62
2021/12/23 13:20:18;;;;;;;45.13;39.45;;;1.20;99.90;;;;;;4954795;28;20203;-63
2021/12/23 13:22:46;;;;;;;41.20;36.38;;;1.20;99.90;;;;;;4947385;28;20340;-64
2021/12/23 13:25:14;;;;;;;43.17;38.58;;;1.20;99.90;;;;;;4944816;29;20255;-62
2021/12/23 13:27:43;;;;;;;42.65;38.25;;;1.30;99.90;;;;;;4943308;29;20196;-63
2021/12/23 13:30:13;;;;;;;40.92;36.72;;;1.50;99.90;;;;;;4944057;29;20712;-62
2021/12/23 13:32:41;;;;;;;40.30;36.20;;;1.50;99.90;;;;;;4943233;29;20240;-64
2021/12/23 13:35:11;;;;;;;41.97;37.25;;;1.60;99.90;;;;;;4943390;28;20218;-64